createdAt,value
2022-09-21T00:01:31.408Z,19.74
2022-09-21T00:04:04.002Z,19.78
2022-09-21T00:06:34.578Z,19.85
2022-09-21T00:09:04.074Z,19.94
2022-09-21T00:11:34.044Z,19.80
2022-09-21T00:14:05.760Z,19.70
2022-09-21T00:16:35.406Z,19.59
2022-09-21T00:19:03.919Z,19.47
2022-09-21T00:21:31.351Z,19.50
2022-09-21T00:24:00.832Z,19.58
2022-09-21T00:26:29.117Z,19.58
2022-09-21T00:28:59.497Z,19.53
2022-09-21T00:31:29.065Z,19.51
2022-09-21T00:33:59.320Z,19.42
2022-09-21T00:36:28.544Z,19.31
2022-09-21T00:38:58.108Z,19.38
2022-09-21T00:41:27.048Z,19.41
2022-09-21T00:44:16.014Z,19.36
2022-09-21T00:46:45.276Z,19.25
2022-09-21T00:49:13.220Z,19.20
2022-09-21T00:51:41.718Z,19.22
2022-09-21T00:54:16.562Z,19.23
2022-09-21T00:56:44.554Z,19.47
2022-09-21T00:59:13.775Z,19.26
2022-09-21T01:01:44.062Z,19.12
2022-09-21T01:04:13.982Z,19.21
2022-09-21T01:06:41.692Z,19.00
2022-09-21T01:09:10.303Z,19.13
2022-09-21T01:11:52.700Z,18.95
2022-09-21T01:15:07.565Z,18.99
2022-09-21T01:17:58.726Z,19.01
2022-09-21T01:20:41.118Z,18.95
2022-09-21T01:23:35.885Z,18.92
2022-09-21T01:26:40.575Z,18.88
2022-09-21T01:29:23.645Z,18.81
2022-09-21T01:31:58.874Z,18.76
2022-09-21T01:34:33.613Z,18.67
2022-09-21T01:37:09.828Z,18.70
2022-09-21T01:39:39.220Z,18.76
2022-09-21T01:42:07.992Z,18.79
2022-09-21T01:44:38.699Z,18.83
2022-09-21T01:47:12.856Z,18.86
2022-09-21T01:49:45.562Z,18.88
2022-09-21T01:52:28.309Z,18.91
2022-09-21T01:55:01.295Z,18.86
2022-09-21T01:57:55.340Z,18.81
2022-09-21T02:00:24.974Z,18.60
2022-09-21T02:02:58.895Z,18.65
2022-09-21T02:05:28.767Z,18.63
2022-09-21T02:07:56.313Z,18.48
2022-09-21T02:10:30.910Z,18.45
2022-09-21T02:13:01.626Z,18.71
2022-09-21T02:15:37.823Z,18.68
2022-09-21T02:18:14.334Z,18.69
2022-09-21T02:21:04.177Z,18.85
2022-09-21T02:24:22.170Z,18.90
2022-09-21T02:27:16.214Z,18.82
2022-09-21T02:30:09.574Z,18.96
2022-09-21T02:32:45.215Z,18.87
2022-09-21T02:35:41.631Z,18.87
2022-09-21T02:38:22.880Z,18.89
2022-09-21T02:40:55.443Z,18.99
2022-09-21T02:43:27.917Z,19.15
2022-09-21T02:46:10.122Z,19.30
2022-09-21T02:48:44.353Z,19.30
2022-09-21T02:51:17.256Z,19.20
2022-09-21T02:53:47.337Z,19.07
2022-09-21T02:56:16.173Z,19.07
2022-09-21T02:58:54.917Z,19.20
2022-09-21T03:01:27.051Z,19.37
2022-09-21T03:03:54.362Z,19.39
2022-09-21T03:06:23.869Z,19.50
2022-09-21T03:08:53.448Z,19.58
2022-09-21T03:11:21.072Z,19.64
2022-09-21T03:13:49.113Z,19.72
2022-09-21T03:16:16.831Z,19.83
2022-09-21T03:18:44.520Z,19.90
2022-09-21T03:21:12.466Z,19.85
2022-09-21T03:23:40.819Z,19.63
2022-09-21T03:26:08.544Z,19.54
2022-09-21T03:28:36.140Z,19.29
2022-09-21T03:31:03.561Z,19.45
2022-09-21T03:33:30.964Z,19.45
2022-09-21T03:35:58.496Z,19.59
2022-09-21T03:38:27.059Z,19.57
2022-09-21T03:40:58.368Z,19.56
2022-09-21T03:43:26.278Z,19.58
2022-09-21T03:45:54.376Z,19.36
2022-09-21T03:48:22.419Z,19.28
2022-09-21T03:50:50.285Z,19.38
2022-09-21T03:53:18.125Z,19.42
2022-09-21T03:55:46.403Z,19.18
2022-09-21T03:58:14.142Z,19.07
2022-09-21T04:00:42.448Z,18.90
2022-09-21T04:03:10.136Z,18.99
2022-09-21T04:05:39.557Z,18.93
2022-09-21T04:08:07.566Z,18.81
2022-09-21T04:10:34.756Z,18.65
2022-09-21T04:13:04.926Z,18.52
2022-09-21T04:15:32.215Z,18.44
2022-09-21T04:17:59.686Z,18.39
2022-09-21T04:20:27.104Z,18.30
2022-09-21T04:22:54.542Z,18.39
2022-09-21T04:25:22.096Z,18.41
2022-09-21T04:27:52.625Z,18.38
2022-09-21T04:30:19.879Z,18.37
2022-09-21T04:32:47.303Z,18.43
2022-09-21T04:35:14.721Z,18.52
2022-09-21T04:37:42.079Z,18.56
2022-09-21T04:40:09.861Z,18.65
2022-09-21T04:42:38.242Z,18.73
2022-09-21T04:45:05.824Z,18.69
2022-09-21T04:47:34.697Z,18.68
2022-09-21T04:50:02.011Z,18.73
2022-09-21T04:52:30.498Z,18.88
2022-09-21T04:54:58.044Z,19.05
2022-09-21T04:57:25.298Z,19.02
2022-09-21T04:59:52.501Z,19.13
2022-09-21T05:02:19.625Z,19.27
2022-09-21T05:04:50.772Z,19.28
2022-09-21T05:07:18.603Z,19.30
2022-09-21T05:10:03.877Z,19.49
2022-09-21T05:12:37.566Z,19.60
2022-09-21T05:15:11.616Z,19.71
2022-09-21T05:17:40.252Z,19.65
2022-09-21T05:20:08.122Z,19.68
2022-09-21T05:22:36.384Z,19.76
2022-09-21T05:25:04.258Z,19.72
2022-09-21T05:27:31.647Z,19.52
2022-09-21T05:29:59.065Z,19.48
2022-09-21T05:32:48.348Z,19.63
2022-09-21T05:35:38.211Z,19.58
2022-09-21T05:38:18.367Z,19.50
2022-09-21T05:40:50.745Z,19.41
2022-09-21T05:43:18.415Z,19.41
2022-09-21T05:45:57.606Z,19.47
2022-09-21T05:48:33.716Z,19.49
2022-09-21T05:51:14.276Z,19.51
2022-09-21T05:53:41.645Z,19.54
2022-09-21T05:56:43.154Z,19.61
2022-09-21T05:59:41.574Z,19.67
2022-09-21T06:02:45.145Z,19.70
2022-09-21T06:05:14.450Z,19.73
2022-09-21T06:07:42.131Z,19.79
2022-09-21T06:10:14.306Z,19.88
2022-09-21T06:12:41.904Z,19.92
2022-09-21T06:15:13.974Z,19.97
2022-09-21T06:17:41.639Z,20.08
2022-09-21T06:20:10.112Z,20.12
2022-09-21T06:22:37.715Z,20.20
2022-09-21T06:25:05.351Z,20.18
2022-09-21T06:27:33.088Z,20.20
2022-09-21T06:30:00.386Z,20.26
2022-09-21T06:32:27.990Z,20.21
2022-09-21T06:34:56.324Z,20.17
2022-09-21T06:37:23.653Z,20.23
2022-09-21T06:39:50.801Z,20.28
2022-09-21T06:42:18.250Z,20.26
2022-09-21T06:44:46.323Z,20.21
2022-09-21T06:47:14.196Z,20.24
2022-09-21T06:49:42.686Z,20.25
2022-09-21T06:52:11.544Z,20.29
2022-09-21T06:54:39.816Z,20.30
2022-09-21T06:57:06.914Z,20.30
2022-09-21T06:59:34.075Z,20.40
2022-09-21T07:02:01.467Z,20.48
2022-09-21T07:04:29.564Z,20.53
2022-09-21T07:06:59.552Z,20.57
2022-09-21T07:12:16.321Z,20.72
2022-09-21T07:14:45.258Z,20.87
2022-09-21T07:17:16.000Z,20.93
2022-09-21T07:19:43.516Z,20.99
2022-09-21T07:22:11.082Z,21.01
2022-09-21T07:24:38.411Z,21.13
2022-09-21T07:27:06.109Z,21.15
2022-09-21T07:29:33.248Z,21.22
2022-09-21T07:32:00.496Z,21.26
2022-09-21T07:34:27.796Z,21.30
2022-09-21T07:36:55.303Z,21.34
2022-09-21T07:39:22.480Z,21.45
2022-09-21T07:41:49.760Z,21.49
2022-09-21T07:44:17.131Z,21.48
2022-09-21T07:46:47.987Z,21.54
2022-09-21T07:49:15.953Z,21.56
2022-09-21T07:51:43.279Z,21.55
2022-09-21T07:54:12.633Z,21.54
2022-09-21T07:56:40.300Z,21.56
2022-09-21T07:59:07.877Z,21.62
2022-09-21T08:01:37.868Z,21.65
2022-09-21T08:04:07.639Z,21.78
2022-09-21T08:06:36.387Z,21.83
2022-09-21T08:09:05.568Z,21.83
2022-09-21T08:11:33.576Z,21.89
2022-09-21T08:14:03.076Z,21.88
2022-09-21T08:16:31.724Z,21.86
2022-09-21T08:18:59.194Z,21.74
2022-09-21T08:21:26.765Z,21.79
2022-09-21T08:23:54.132Z,21.74
2022-09-21T08:26:21.502Z,21.77
2022-09-21T08:28:52.377Z,21.79
2022-09-21T08:31:22.555Z,21.85
2022-09-21T08:33:51.374Z,21.86
2022-09-21T08:36:19.854Z,22.02
2022-09-21T08:38:48.230Z,22.04
2022-09-21T08:41:48.234Z,22.15
2022-09-21T08:44:28.870Z,22.21
2022-09-21T08:47:12.656Z,22.29
2022-09-21T08:49:43.245Z,22.22
2022-09-21T08:52:16.762Z,22.23
2022-09-21T08:54:53.113Z,22.23
2022-09-21T08:57:26.304Z,22.36
2022-09-21T08:59:53.616Z,22.49
2022-09-21T09:02:35.958Z,22.60
2022-09-21T09:05:24.969Z,22.74
2022-09-21T09:08:04.405Z,22.79
2022-09-21T09:10:43.824Z,22.67
2022-09-21T09:13:38.539Z,22.60
2022-09-21T09:16:31.360Z,22.55
2022-09-21T09:19:07.332Z,22.44
2022-09-21T09:21:38.461Z,22.61
2022-09-21T09:24:31.725Z,22.72
2022-09-21T09:27:09.278Z,22.77
2022-09-21T09:29:49.374Z,22.86
2022-09-21T09:32:18.065Z,22.85
2022-09-21T09:35:11.052Z,22.85
2022-09-21T09:37:43.052Z,22.92
2022-09-21T09:40:14.381Z,22.93
2022-09-21T09:43:08.072Z,22.99
2022-09-21T09:46:02.992Z,22.98
2022-09-21T09:48:36.418Z,23.08
2022-09-21T09:51:03.681Z,22.73
2022-09-21T09:53:31.858Z,22.69
2022-09-21T09:56:01.033Z,22.72
2022-09-21T09:58:52.793Z,22.85
2022-09-21T10:01:43.559Z,22.93
2022-09-21T10:04:17.596Z,22.89
2022-09-21T10:06:46.794Z,23.13
2022-09-21T10:09:26.448Z,23.14
2022-09-21T10:11:58.583Z,23.09
2022-09-21T10:14:29.871Z,23.24
2022-09-21T10:17:08.223Z,23.30
2022-09-21T10:19:37.966Z,23.41
2022-09-21T10:22:05.939Z,23.49
2022-09-21T10:24:40.825Z,23.59
2022-09-21T10:27:14.571Z,23.68
2022-09-21T10:29:44.845Z,23.64
2022-09-21T10:32:20.315Z,23.54
2022-09-21T10:35:00.258Z,23.61
2022-09-21T10:37:41.467Z,23.68
2022-09-21T10:40:30.896Z,23.72
2022-09-21T10:43:00.674Z,23.67
2022-09-21T10:45:30.684Z,23.90
2022-09-21T10:48:08.375Z,23.98
2022-09-21T10:50:43.581Z,24.03
2022-09-21T10:53:23.585Z,24.12
2022-09-21T10:56:17.178Z,24.20
2022-09-21T10:59:33.256Z,24.00
2022-09-21T11:02:02.325Z,23.78
2022-09-21T11:04:36.539Z,23.84
2022-09-21T11:07:19.873Z,23.81
2022-09-21T11:10:08.643Z,23.83
2022-09-21T11:12:36.567Z,23.82
2022-09-21T11:15:22.840Z,23.88
2022-09-21T11:18:19.295Z,23.88
2022-09-21T11:20:52.410Z,23.93
2022-09-21T11:23:36.402Z,23.91
2022-09-21T11:26:12.592Z,23.77
2022-09-21T11:29:19.557Z,23.72
2022-09-21T11:32:11.045Z,23.66
2022-09-21T11:35:27.110Z,23.77
2022-09-21T11:38:18.685Z,23.68
2022-09-21T11:41:24.264Z,23.67
2022-09-21T11:44:02.909Z,23.78
2022-09-21T11:46:42.757Z,23.63
2022-09-21T11:49:47.973Z,23.68
2022-09-21T11:52:46.153Z,23.69
2022-09-21T11:55:57.873Z,23.68
2022-09-21T11:58:50.555Z,23.73
2022-09-21T12:01:38.833Z,23.73
2022-09-21T12:04:30.143Z,23.62
2022-09-21T12:07:24.752Z,23.31
2022-09-21T12:10:31.472Z,23.41
2022-09-21T12:13:14.823Z,23.40
2022-09-21T12:15:46.667Z,23.23
2022-09-21T12:18:45.318Z,23.24
2022-09-21T12:21:45.047Z,23.22
2022-09-21T12:24:22.313Z,23.15
2022-09-21T12:26:57.155Z,23.24
2022-09-21T12:29:53.814Z,23.35
2022-09-21T12:33:04.555Z,23.27
2022-09-21T12:35:54.442Z,23.35
2022-09-21T12:38:44.640Z,23.27
2022-09-21T12:41:17.172Z,23.39
2022-09-21T12:44:00.376Z,23.36
2022-09-21T12:46:56.836Z,23.39
2022-09-21T12:49:32.374Z,23.27
2022-09-21T12:52:06.979Z,23.17
2022-09-21T12:54:45.164Z,23.26
2022-09-21T12:57:49.344Z,23.03
2022-09-21T13:00:22.322Z,23.00
2022-09-21T13:03:24.461Z,23.09
2022-09-21T13:06:06.922Z,23.15
2022-09-21T13:08:38.292Z,23.02
2022-09-21T13:11:11.557Z,23.03
2022-09-21T13:13:53.124Z,23.14
2022-09-21T13:16:39.134Z,23.11
2022-09-21T13:19:20.513Z,22.94
2022-09-21T13:22:14.919Z,22.89
2022-09-21T13:24:44.326Z,22.79
2022-09-21T13:27:12.197Z,22.62
2022-09-21T13:29:43.576Z,22.55
2022-09-21T13:32:12.291Z,22.43
2022-09-21T13:34:48.432Z,22.42
2022-09-21T13:37:27.839Z,22.60
2022-09-21T13:40:15.157Z,22.62
2022-09-21T13:42:53.308Z,22.75
2022-09-21T13:45:21.751Z,22.81
2022-09-21T13:47:55.552Z,22.75
2022-09-21T13:50:37.252Z,22.88
2022-09-21T13:53:30.443Z,22.89
2022-09-21T13:56:09.106Z,22.86
2022-09-21T13:58:45.840Z,23.01
2022-09-21T14:01:42.503Z,22.93
2022-09-21T14:04:37.847Z,23.03
2022-09-21T14:07:08.622Z,23.02
2022-09-21T14:09:54.243Z,22.99
2022-09-21T14:12:26.217Z,22.90
2022-09-21T14:15:36.936Z,22.94
2022-09-21T14:18:18.651Z,22.90
2022-09-21T14:21:08.419Z,22.85
2022-09-21T14:23:39.770Z,22.84
2022-09-21T14:26:42.659Z,22.88
2022-09-21T14:29:25.503Z,22.80
2022-09-21T14:32:00.604Z,22.62
2022-09-21T14:34:36.704Z,22.52
2022-09-21T14:37:28.049Z,22.56
2022-09-21T14:39:55.934Z,22.51
2022-09-21T14:42:30.490Z,22.46
2022-09-21T14:45:01.512Z,22.60
2022-09-21T14:47:40.536Z,22.24
2022-09-21T14:50:22.800Z,22.27
2022-09-21T14:53:29.422Z,22.19
2022-09-21T14:56:22.512Z,22.09
2022-09-21T14:59:44.836Z,22.10
2022-09-21T15:02:29.725Z,22.03
2022-09-21T15:05:19.792Z,22.10
2022-09-21T15:08:22.650Z,22.03
2022-09-21T15:11:27.470Z,21.92
2022-09-21T15:14:13.499Z,21.83
2022-09-21T15:16:45.916Z,21.75
2022-09-21T15:19:28.501Z,21.74
2022-09-21T15:22:17.561Z,21.76
2022-09-21T15:25:05.144Z,21.66
2022-09-21T15:27:33.904Z,21.65
2022-09-21T15:30:04.475Z,21.57
2022-09-21T15:32:44.851Z,21.60
2022-09-21T15:35:32.750Z,21.50
2022-09-21T15:38:01.536Z,21.27
2022-09-21T15:40:32.881Z,21.08
2022-09-21T15:43:12.232Z,20.93
2022-09-21T15:46:01.261Z,20.75
2022-09-21T15:48:34.477Z,20.45
2022-09-21T15:51:25.223Z,20.34
2022-09-21T15:54:08.956Z,20.14
2022-09-21T15:56:41.735Z,20.01
2022-09-21T15:59:18.351Z,19.83
2022-09-21T16:01:50.836Z,19.78
2022-09-21T16:04:23.449Z,19.60
2022-09-21T16:07:24.149Z,19.65
2022-09-21T16:09:52.814Z,19.52
2022-09-21T16:12:37.653Z,19.45
2022-09-21T16:15:30.299Z,19.35
2022-09-21T16:18:03.257Z,19.36
2022-09-21T16:20:47.708Z,19.21
2022-09-21T16:23:24.485Z,19.04
2022-09-21T16:26:00.936Z,18.76
2022-09-21T16:28:38.623Z,18.59
2022-09-21T16:31:22.863Z,18.49
2022-09-21T16:33:57.888Z,18.44
2022-09-21T16:36:31.961Z,18.42
2022-09-21T16:39:00.680Z,18.49
2022-09-21T16:41:42.427Z,18.52
2022-09-21T16:44:20.936Z,18.47
2022-09-21T16:46:52.268Z,18.42
2022-09-21T16:49:22.063Z,18.42
2022-09-21T16:51:50.756Z,18.49
2022-09-21T16:54:20.419Z,18.37
2022-09-21T16:56:48.097Z,18.46
2022-09-21T16:59:23.421Z,18.45
2022-09-21T17:01:58.480Z,18.46
2022-09-21T17:04:29.374Z,18.41
2022-09-21T17:06:57.300Z,18.49
2022-09-21T17:09:32.211Z,18.50
2022-09-21T17:12:01.795Z,18.58
2022-09-21T17:14:35.516Z,18.60
2022-09-21T17:17:10.282Z,18.54
2022-09-21T17:19:39.683Z,18.46
2022-09-21T17:22:07.449Z,18.52
2022-09-21T17:24:50.364Z,18.38
2022-09-21T17:27:21.590Z,18.42
2022-09-21T17:29:50.021Z,18.28
2022-09-21T17:32:23.153Z,18.21
2022-09-21T17:35:14.801Z,18.19
2022-09-21T17:37:41.918Z,18.09
2022-09-21T17:40:11.026Z,17.96
2022-09-21T17:42:41.291Z,17.91
2022-09-21T17:45:53.143Z,18.16
2022-09-21T17:48:22.753Z,17.99
2022-09-21T17:50:51.543Z,17.89
2022-09-21T17:53:35.318Z,17.82
2022-09-21T17:56:30.391Z,17.87
2022-09-21T17:59:02.015Z,17.95
2022-09-21T18:01:41.749Z,17.90
2022-09-21T18:04:11.168Z,17.89
2022-09-21T18:06:39.860Z,17.79
2022-09-21T18:09:07.996Z,17.91
2022-09-21T18:12:02.501Z,17.93
2022-09-21T18:14:58.165Z,17.95
2022-09-21T18:18:17.047Z,18.00
2022-09-21T18:21:02.321Z,17.82
2022-09-21T18:23:37.847Z,17.92
2022-09-21T18:26:05.336Z,17.90
2022-09-21T18:28:40.452Z,17.98
2022-09-21T18:31:24.654Z,18.05
2022-09-21T18:33:56.972Z,17.93
2022-09-21T18:36:38.755Z,18.00
2022-09-21T18:39:27.289Z,17.91
2022-09-21T18:42:39.945Z,17.92
2022-09-21T18:45:18.262Z,17.76
2022-09-21T18:48:17.388Z,17.81
2022-09-21T18:51:09.152Z,17.81
2022-09-21T18:53:47.506Z,17.72
2022-09-21T18:56:15.479Z,17.45
2022-09-21T18:58:44.537Z,17.47
2022-09-21T19:01:16.671Z,17.31
2022-09-21T19:03:44.904Z,17.58
2022-09-21T19:06:37.736Z,17.67
2022-09-21T19:09:22.287Z,17.61
2022-09-21T19:12:12.710Z,17.54
2022-09-21T19:14:57.964Z,17.57
2022-09-21T19:17:44.189Z,17.58
2022-09-21T19:20:33.083Z,17.61
2022-09-21T19:23:22.140Z,17.64
2022-09-21T19:26:12.302Z,17.57
2022-09-21T19:29:09.454Z,17.62
2022-09-21T19:31:36.820Z,17.47
2022-09-21T19:34:20.186Z,17.40
2022-09-21T19:36:50.514Z,17.49
2022-09-21T19:39:18.075Z,17.42
2022-09-21T19:42:30.612Z,17.39
2022-09-21T19:45:08.625Z,17.32
2022-09-21T19:47:52.646Z,17.31
2022-09-21T19:50:54.744Z,17.31
2022-09-21T19:53:41.974Z,17.14
2022-09-21T19:56:31.358Z,17.04
2022-09-21T19:59:17.455Z,16.98
2022-09-21T20:01:58.512Z,16.85
2022-09-21T20:04:50.267Z,16.82
2022-09-21T20:07:42.828Z,16.79
2022-09-21T20:10:10.173Z,16.81
2022-09-21T20:12:59.933Z,16.86
2022-09-21T20:15:38.674Z,16.95
2022-09-21T20:18:20.256Z,16.94
2022-09-21T20:20:48.065Z,16.92
2022-09-21T20:23:15.838Z,16.77
2022-09-21T20:26:04.394Z,16.82
2022-09-21T20:28:32.075Z,16.88
2022-09-21T20:30:59.571Z,17.01
2022-09-21T20:33:32.188Z,17.09
2022-09-21T20:35:59.390Z,17.19
2022-09-21T20:38:26.830Z,17.22
2022-09-21T20:40:54.260Z,17.26
2022-09-21T20:43:23.268Z,17.09
2022-09-21T20:45:50.726Z,17.02
2022-09-21T20:48:18.106Z,17.01
2022-09-21T20:50:49.179Z,16.89
2022-09-21T20:53:18.092Z,16.92
2022-09-21T20:55:56.720Z,16.94
2022-09-21T20:58:25.713Z,16.87
2022-09-21T21:00:58.586Z,16.87
2022-09-21T21:03:26.491Z,16.75
2022-09-21T21:05:53.923Z,16.61
2022-09-21T21:08:21.065Z,16.52
2022-09-21T21:10:48.179Z,16.40
2022-09-21T21:13:15.461Z,16.26
2022-09-21T21:15:42.741Z,16.20
2022-09-21T21:18:12.518Z,16.19
2022-09-21T21:20:41.666Z,16.14
2022-09-21T21:23:09.086Z,16.10
2022-09-21T21:25:36.565Z,16.10
2022-09-21T21:28:04.329Z,16.04
2022-09-21T21:30:32.406Z,15.99
2022-09-21T21:33:03.348Z,15.91
2022-09-21T21:35:31.122Z,15.82
2022-09-21T21:37:59.075Z,15.86
2022-09-21T21:40:26.821Z,15.72
2022-09-21T21:42:56.584Z,15.54
2022-09-21T21:45:23.738Z,15.37
2022-09-21T21:47:51.742Z,15.30
2022-09-21T21:50:19.017Z,15.29
2022-09-21T21:52:46.473Z,15.31
2022-09-21T21:55:14.402Z,15.32
2022-09-21T21:57:41.543Z,15.42
2022-09-21T22:00:09.531Z,15.37
2022-09-21T22:02:36.992Z,15.38
2022-09-21T22:05:04.570Z,15.39
2022-09-21T22:07:31.886Z,15.36
2022-09-21T22:09:59.310Z,15.25
2022-09-21T22:12:26.479Z,15.13
2022-09-21T22:14:53.765Z,15.03
2022-09-21T22:17:21.333Z,15.00
2022-09-21T22:19:49.837Z,15.01
2022-09-21T22:22:17.038Z,15.02
2022-09-21T22:24:45.089Z,15.01
2022-09-21T22:27:12.416Z,14.96
2022-09-21T22:29:40.195Z,15.23
2022-09-21T22:32:07.849Z,15.15
2022-09-21T22:34:35.251Z,15.14
2022-09-21T22:37:02.518Z,14.99
2022-09-21T22:39:30.715Z,14.76
2022-09-21T22:41:58.241Z,14.65
2022-09-21T22:44:25.747Z,14.65
2022-09-21T22:46:53.129Z,14.56
2022-09-21T22:49:21.912Z,14.56
2022-09-21T22:51:49.226Z,14.49
2022-09-21T22:54:16.425Z,14.38
2022-09-21T22:56:43.563Z,14.21
2022-09-21T22:59:11.663Z,14.25
2022-09-21T23:01:40.723Z,14.14
2022-09-21T23:04:11.107Z,14.21
2022-09-21T23:06:40.616Z,14.31
2022-09-21T23:09:12.848Z,14.28
2022-09-21T23:11:47.277Z,14.27
2022-09-21T23:14:17.780Z,14.32
2022-09-21T23:16:45.608Z,14.30
2022-09-21T23:19:16.578Z,14.28
2022-09-21T23:21:49.971Z,14.24
2022-09-21T23:24:18.080Z,14.17
2022-09-21T23:26:48.023Z,14.20
2022-09-21T23:29:16.607Z,14.08
2022-09-21T23:31:46.251Z,14.21
2022-09-21T23:34:14.745Z,14.09
2022-09-21T23:36:43.079Z,14.05
2022-09-21T23:39:13.599Z,13.99
2022-09-21T23:41:41.017Z,14.00
2022-09-21T23:44:08.491Z,14.06
2022-09-21T23:46:38.060Z,14.01
2022-09-21T23:49:06.404Z,14.06
2022-09-21T23:51:34.607Z,14.00
2022-09-21T23:54:01.859Z,13.95
2022-09-21T23:56:29.492Z,13.94
2022-09-21T23:58:58.243Z,13.73
